Takamine — 7JKK — position and weather

sailwx.info

Track history (hours):
 
Tides and Currents Weather Stations Pressure Air Temp Water Temp Dewpoint Dewpoint Depression Visibility Wind Speed Wind Dir Waves Ship Positions

Takamine

Last reported at 2017-May-16 10:50 UTC. Time now 2017-May-26 03:36 UTC.
Position N 02°03' E 102°09'.
Warning: this ship's position is 9 days out of date.

Length 333 m; draft 10.3 m.

Type: Tanker. MMSI: 432832000.

Date/timePositionNaut miles runAvg speedWind from/ knotsBaromVisibWave heightAir tempDewpointWater temp
2017-May-16 10:50N 02°03' E 102°09'514.3
2017-May-16 10:30N 02°00' E 102°13'714.5
2017-May-16 09:59N 01°56' E 102°19'714.5
2017-May-16 09:30N 01°53' E 102°25'714.6
2017-May-16 09:00N 01°49' E 102°32'714.4
2017-May-16 08:30N 01°46' E 102°38'914.4
2017-May-16 07:51N 01°41' E 102°46'3413.1
2017-May-16 05:17N 01°22' E 103°14'512.6
2017-May-16 04:53N 01°19' E 103°18'512.7
2017-May-16 04:30N 01°16' E 103°22'613.0
2017-May-16 04:00N 01°14' E 103°28'713.5
2017-May-16 03:31N 01°12' E 103°34'713.5
2017-May-16 03:00N 01°10' E 103°41'510.3
2017-May-16 02:30N 01°09' E 103°46'510.8
2017-May-16 02:01N 01°12' E 103°51'611.3
2017-May-16 01:31N 01°14' E 103°56'611.8
2017-May-16 01:00N 01°15' E 104°02'712.7
2017-May-16 00:26N 01°16' E 104°09'712.0
2017-May-15 23:51N 01°18' E 104°16'511.5
2017-May-15 23:24N 01°20' E 104°20'  
Track history (hours):
 
Tides and Currents Weather Stations Pressure Air Temp Water Temp Dewpoint Dewpoint Depression Visibility Wind Speed Wind Dir Waves Ship Positions

Takamine

Last reported at 2017-May-16 10:50 UTC. Time now 2017-May-26 03:36 UTC.
Position N 02°03' E 102°09'.
Warning: this ship's position is 9 days out of date.

Length 333 m; draft 10.3 m.

Type: Tanker. MMSI: 432832000.

Date/timePositionNaut miles runAvg speedWind from/ knotsBaromVisibWave heightAir tempDewpointWater temp
2017-May-16 10:50N 02°03' E 102°09'514.3
2017-May-16 10:30N 02°00' E 102°13'714.5
2017-May-16 09:59N 01°56' E 102°19'714.5
2017-May-16 09:30N 01°53' E 102°25'714.6
2017-May-16 09:00N 01°49' E 102°32'714.4
2017-May-16 08:30N 01°46' E 102°38'914.4
2017-May-16 07:51N 01°41' E 102°46'3413.1
2017-May-16 05:17N 01°22' E 103°14'512.6
2017-May-16 04:53N 01°19' E 103°18'512.7
2017-May-16 04:30N 01°16' E 103°22'613.0
2017-May-16 04:00N 01°14' E 103°28'713.5
2017-May-16 03:31N 01°12' E 103°34'713.5
2017-May-16 03:00N 01°10' E 103°41'510.3
2017-May-16 02:30N 01°09' E 103°46'510.8
2017-May-16 02:01N 01°12' E 103°51'611.3
2017-May-16 01:31N 01°14' E 103°56'611.8
2017-May-16 01:00N 01°15' E 104°02'712.7
2017-May-16 00:26N 01°16' E 104°09'712.0
2017-May-15 23:51N 01°18' E 104°16'511.5
2017-May-15 23:24N 01°20' E 104°20'  

Dump ship's entire track history